createdAt,value
2022-09-25T00:02:09.619Z,15.6
2022-09-25T00:07:45.386Z,15.6
2022-09-25T00:13:20.445Z,15.5
2022-09-25T00:18:56.748Z,15.5
2022-09-25T00:24:31.603Z,15.5
2022-09-25T00:30:54.068Z,15.4
2022-09-25T00:36:30.676Z,15.4
2022-09-25T00:42:05.583Z,15.4
2022-09-25T00:47:40.839Z,15.4
2022-09-25T00:53:15.744Z,15.4
2022-09-25T00:58:51.849Z,15.4
2022-09-25T01:04:26.660Z,15.4
2022-09-25T01:10:03.219Z,15.4
2022-09-25T01:15:38.232Z,15.4
2022-09-25T01:21:15.447Z,15.4
2022-09-25T01:26:50.313Z,15.4
2022-09-25T01:32:25.494Z,15.4
2022-09-25T01:38:00.788Z,15.4
2022-09-25T01:43:37.795Z,15.4
2022-09-25T01:49:13.091Z,15.4
2022-09-25T01:54:47.924Z,15.3
2022-09-25T02:00:23.763Z,15.3
2022-09-25T02:05:58.720Z,15.2
2022-09-25T02:11:33.783Z,15.2
2022-09-25T02:17:08.661Z,15.2
2022-09-25T02:22:45.044Z,15.2
2022-09-25T02:28:20.801Z,15.1
2022-09-25T02:33:55.841Z,15.1
2022-09-25T02:39:31.122Z,15.1
2022-09-25T02:45:06.206Z,15
2022-09-25T02:50:40.854Z,15
2022-09-25T02:56:16.042Z,14.9
2022-09-25T03:01:50.921Z,14.9
2022-09-25T03:07:26.380Z,14.9
2022-09-25T03:13:01.385Z,14.9
2022-09-25T03:18:36.531Z,14.9
2022-09-25T03:24:11.475Z,14.9
2022-09-25T03:29:48.910Z,14.9
2022-09-25T03:35:23.751Z,14.8
2022-09-25T03:40:58.887Z,14.8
2022-09-25T03:46:36.635Z,14.7
2022-09-25T03:52:14.358Z,14.7
2022-09-25T03:57:49.384Z,14.6
2022-09-25T04:03:24.775Z,14.5
2022-09-25T04:09:00.750Z,14.4
2022-09-25T04:14:35.551Z,14.4
2022-09-25T04:20:10.279Z,14.4
2022-09-25T04:25:45.113Z,14.3
2022-09-25T04:31:21.157Z,14.2
2022-09-25T04:36:57.970Z,14.2
2022-09-25T04:42:33.239Z,14.2
2022-09-25T04:48:07.912Z,14.1
2022-09-25T04:53:43.943Z,14.1
2022-09-25T04:59:18.759Z,14
2022-09-25T05:04:54.844Z,14
2022-09-25T05:10:30.290Z,14
2022-09-25T05:16:05.090Z,13.9
2022-09-25T05:21:41.239Z,13.9
2022-09-25T05:27:16.391Z,13.8
2022-09-25T05:32:51.846Z,13.8
2022-09-25T05:38:26.806Z,13.8
2022-09-25T05:44:01.914Z,13.8
2022-09-25T05:49:37.109Z,13.8
2022-09-25T05:55:12.071Z,13.7
2022-09-25T06:00:46.925Z,13.7
2022-09-25T06:06:27.436Z,13.6
2022-09-25T06:12:03.836Z,13.6
2022-09-25T06:17:46.340Z,13.6
2022-09-25T06:23:21.556Z,13.7
2022-09-25T06:28:59.773Z,13.7
2022-09-25T06:34:38.585Z,13.7
2022-09-25T06:40:20.847Z,13.7
2022-09-25T06:46:04.196Z,13.8
2022-09-25T06:51:40.688Z,13.4
2022-09-25T06:57:16.205Z,13.3
2022-09-25T07:02:56.154Z,13.4
2022-09-25T07:08:35.224Z,13.4
2022-09-25T07:14:10.069Z,13.2
2022-09-25T07:19:48.167Z,13
2022-09-25T07:25:23.206Z,13.2
2022-09-25T07:30:58.956Z,13.4
2022-09-25T07:36:35.321Z,13.6
2022-09-25T07:42:10.532Z,13.8
2022-09-25T07:47:45.772Z,13.9
2022-09-25T07:53:21.885Z,13.9
2022-09-25T07:58:56.836Z,14.2
2022-09-25T08:04:31.873Z,14.4
2022-09-25T08:10:06.793Z,14.6
2022-09-25T08:15:52.284Z,14.7
2022-09-25T08:21:32.982Z,14.9
2022-09-25T08:27:07.938Z,15
2022-09-25T08:32:47.627Z,15
2022-09-25T08:38:23.268Z,15.1
2022-09-25T08:43:58.425Z,15.5
2022-09-25T08:49:36.228Z,15.1
2022-09-25T08:55:11.671Z,15.3
2022-09-25T09:00:47.169Z,15.7
2022-09-25T09:06:22.597Z,15.7
2022-09-25T09:11:57.418Z,15.1
2022-09-25T09:17:32.747Z,15.9
2022-09-25T09:23:12.196Z,16.4
2022-09-25T09:28:50.922Z,17.4
2022-09-25T09:34:41.165Z,17.7
2022-09-25T09:41:28.467Z,19.4
2022-09-25T09:47:04.577Z,19.4
2022-09-25T09:52:39.763Z,18
2022-09-25T09:58:14.622Z,16.8
2022-09-25T10:03:51.575Z,16.5
2022-09-25T10:09:26.418Z,17.6
2022-09-25T10:15:01.644Z,18.6
2022-09-25T10:20:37.067Z,18.3
2022-09-25T10:26:11.929Z,18.5
2022-09-25T10:31:47.177Z,18.4
2022-09-25T10:37:22.257Z,17.8
2022-09-25T10:42:57.431Z,17.5
2022-09-25T10:48:32.832Z,17.9
2022-09-25T10:54:07.723Z,18.2
2022-09-25T10:59:43.831Z,18.9
2022-09-25T11:05:19.042Z,18.2
2022-09-25T11:10:54.012Z,17.8
2022-09-25T11:16:29.033Z,17.8
2022-09-25T11:22:04.658Z,18.3
2022-09-25T11:27:39.546Z,18.5
2022-09-25T11:33:14.843Z,19.4
2022-09-25T11:38:50.150Z,20.2
2022-09-25T11:44:26.328Z,22.2
2022-09-25T11:50:01.511Z,22.4
2022-09-25T11:55:40.370Z,22.5
2022-09-25T12:01:18.990Z,23
2022-09-25T12:06:54.743Z,21.2
2022-09-25T12:12:29.890Z,20.1
2022-09-25T12:18:04.917Z,19.9
2022-09-25T12:23:39.873Z,20.3
2022-09-25T12:29:24.796Z,21.6
2022-09-25T12:34:59.655Z,23.8
2022-09-25T12:40:34.845Z,24.5
2022-09-25T12:46:11.889Z,23.6
2022-09-25T12:51:54.520Z,23.4
2022-09-25T12:57:30.545Z,23.3
2022-09-25T13:03:06.873Z,23.5
2022-09-25T13:08:42.770Z,24.8
2022-09-25T13:14:17.626Z,25.9
2022-09-25T13:19:53.998Z,28.7
2022-09-25T13:25:29.014Z,35.4
2022-09-25T13:31:08.177Z,36.2
2022-09-25T13:36:46.706Z,36.5
2022-09-25T13:42:22.743Z,30
2022-09-25T13:47:59.011Z,34.2
2022-09-25T13:53:43.966Z,29.7
2022-09-25T13:59:19.187Z,27.5
2022-09-25T14:04:54.605Z,26.5
2022-09-25T14:10:29.652Z,24.8
2022-09-25T14:16:04.729Z,24.1
2022-09-25T14:21:40.691Z,24.2
2022-09-25T14:27:16.274Z,23.9
2022-09-25T14:32:55.448Z,23.2
2022-09-25T14:38:31.730Z,23.2
2022-09-25T14:44:10.742Z,22.8
2022-09-25T14:49:46.758Z,22.9
2022-09-25T14:55:21.757Z,22.7
2022-09-25T15:00:56.647Z,22.5
2022-09-25T15:06:32.016Z,22.1
2022-09-25T15:12:08.073Z,22.2
2022-09-25T15:17:43.562Z,22.3
2022-09-25T15:23:18.932Z,22
2022-09-25T15:28:53.673Z,22
2022-09-25T15:34:28.687Z,21.8
2022-09-25T15:40:03.861Z,21.6
2022-09-25T15:45:39.451Z,21.5
2022-09-25T15:51:16.836Z,21.2
2022-09-25T15:56:52.045Z,20.7
2022-09-25T16:02:27.673Z,20.4
2022-09-25T16:08:03.188Z,20.2
2022-09-25T16:13:59.684Z,20.3
2022-09-25T16:19:32.205Z,20.1
2022-09-25T16:25:07.396Z,19.8
2022-09-25T16:30:43.270Z,19.4
2022-09-25T16:36:18.475Z,18.9
2022-09-25T16:41:53.743Z,18.7
2022-09-25T16:47:28.529Z,18.4
2022-09-25T16:53:03.188Z,18.1
2022-09-25T16:58:38.120Z,17.8
2022-09-25T17:04:13.419Z,17.6
2022-09-25T17:09:48.115Z,17.6
2022-09-25T17:15:23.310Z,17.5
2022-09-25T17:20:58.291Z,17.5
2022-09-25T17:26:32.973Z,17.2
2022-09-25T17:32:07.713Z,17
2022-09-25T17:37:42.517Z,16.9
2022-09-25T17:43:17.733Z,16.6
2022-09-25T17:48:54.638Z,16.3
2022-09-25T17:54:30.564Z,16.2
2022-09-25T18:00:07.511Z,16.1
2022-09-25T18:05:42.884Z,15.9
2022-09-25T18:11:17.719Z,15.8
2022-09-25T18:16:53.072Z,15.7
2022-09-25T18:22:28.290Z,15.6
2022-09-25T18:28:03.543Z,15.5
2022-09-25T18:33:39.224Z,15.5
2022-09-25T18:39:22.826Z,15.7
2022-09-25T18:45:04.960Z,16.2
2022-09-25T18:50:39.932Z,16.3
2022-09-25T18:56:14.471Z,16.4
2022-09-25T19:01:50.344Z,16.5
2022-09-25T19:07:29.041Z,16.5
2022-09-25T19:13:26.149Z,16.6
2022-09-25T19:18:59.773Z,16.6
2022-09-25T19:24:34.580Z,16.6
2022-09-25T19:30:09.484Z,16.6
2022-09-25T19:35:44.344Z,16.5
2022-09-25T19:41:20.076Z,16.5
2022-09-25T19:46:56.049Z,16.5
2022-09-25T19:52:30.657Z,16.5
2022-09-25T19:58:06.830Z,16.5
2022-09-25T20:03:41.649Z,16.5
2022-09-25T20:10:01.589Z,16.6
2022-09-25T20:15:37.660Z,16.6
2022-09-25T20:21:21.103Z,16.6
2022-09-25T20:26:56.690Z,16.6
2022-09-25T20:32:32.807Z,16.6
2022-09-25T20:38:07.212Z,16.5
2022-09-25T20:43:41.951Z,16.5
2022-09-25T20:49:16.841Z,16.5
2022-09-25T20:54:52.005Z,16.5
2022-09-25T21:00:27.755Z,16.5
2022-09-25T21:06:09.657Z,16.5
2022-09-25T21:11:44.483Z,16.5
2022-09-25T21:17:19.883Z,16.5
2022-09-25T21:22:55.394Z,16.5
2022-09-25T21:28:30.426Z,16.5
2022-09-25T21:34:05.685Z,16.5
2022-09-25T21:39:40.682Z,16.5
2022-09-25T21:45:15.963Z,16.5
2022-09-25T21:50:51.677Z,16.4
2022-09-25T21:56:26.610Z,16.3
2022-09-25T22:02:01.667Z,16.2
2022-09-25T22:07:36.430Z,16.2
2022-09-25T22:13:33.222Z,16.2
2022-09-25T22:19:06.002Z,16.2
2022-09-25T22:24:41.691Z,16.2
2022-09-25T22:30:17.796Z,16.1
2022-09-25T22:35:53.190Z,16.1
2022-09-25T22:41:29.278Z,16.1
2022-09-25T22:47:04.498Z,16.1
2022-09-25T22:52:39.180Z,16.1
2022-09-25T22:58:14.076Z,16.1
2022-09-25T23:03:50.555Z,16.1
2022-09-25T23:09:28.091Z,16.1
2022-09-25T23:15:03.180Z,16.1
2022-09-25T23:20:38.060Z,16.1
2022-09-25T23:26:14.107Z,16.1
2022-09-25T23:31:49.078Z,16.1
2022-09-25T23:37:24.322Z,16.1
2022-09-25T23:42:59.529Z,16.1
2022-09-25T23:48:34.925Z,16.1
2022-09-25T23:54:09.705Z,16
2022-09-25T23:59:45.043Z,16
